Time;durP1;ratioP1;P1;durP2;ratioP2;P2;SDS_P1;SDS_P2;PMS_P1;PMS_P2;Temp;Humidity;BMP_temperature;BMP_pressure;BME280_temperature;BME280_humidity;BME280_pressure;Samples;Min_cycle;Max_cycle;Signal;HPM_P1;HPM_P2
2023/11/05 00:01:01;;;;;;;0.22;0.22;;;;;;;9.53;86.51;97269.56;5055331;28;19920;-69
2023/11/05 00:03:30;;;;;;;0.68;0.68;;;;;;;9.55;86.10;97257.63;5055291;28;20053;-69
2023/11/05 00:06:01;;;;;;;0.35;0.35;;;;;;;9.59;86.09;97249.00;5055873;28;20061;-71
2023/11/05 00:08:30;;;;;;;1.58;1.40;;;;;;;9.58;86.19;97260.88;5055537;28;20445;-67
2023/11/05 00:10:59;;;;;;;0.77;0.77;;;;;;;9.60;86.00;97265.94;5055351;28;20386;-67
2023/11/05 00:13:28;;;;;;;0.35;0.35;;;;;;;9.64;86.40;97257.28;5055104;28;20041;-67
2023/11/05 00:15:57;;;;;;;0.50;0.50;;;;;;;9.65;86.29;97248.75;5055217;28;20049;-68
2023/11/05 00:18:26;;;;;;;0.30;0.30;;;;;;;9.64;86.66;97254.75;5055316;28;20059;-68
2023/11/05 00:20:56;;;;;;;0.50;0.50;;;;;;;9.61;86.26;97231.94;5055039;28;20085;-70
2023/11/05 00:23:26;;;;;;;0.93;0.88;;;;;;;9.59;85.98;97228.63;5071140;28;20402;-69
2023/11/05 00:25:55;;;;;;;0.73;0.73;;;;;;;9.63;86.60;97230.16;5055258;28;20203;-70
2023/11/05 00:28:24;;;;;;;0.63;0.63;;;;;;;9.66;86.47;97237.69;5054973;28;20037;-69
2023/11/05 00:30:53;;;;;;;0.30;0.30;;;;;;;9.68;86.61;97259.69;5054768;28;20390;-72
2023/11/05 00:33:23;;;;;;;0.40;0.40;;;;;;;9.69;86.29;97265.59;5053789;28;20045;-69
2023/11/05 00:35:52;;;;;;;0.40;0.40;;;;;;;9.70;86.06;97272.34;5054848;28;20053;-67
2023/11/05 00:38:21;;;;;;;3.20;1.17;;;;;;;9.72;85.99;97265.47;5052815;28;20102;-73
2023/11/05 00:40:52;;;;;;;0.30;0.30;;;;;;;9.75;85.11;97270.47;5053529;28;20068;-72
2023/11/05 00:43:21;;;;;;;1.45;0.43;;;;;;;9.77;85.41;97273.78;5054673;28;20053;-71
2023/11/05 00:45:50;;;;;;;0.95;0.93;;;;;;;9.79;85.17;97257.56;5070235;28;20033;-68
2023/11/05 00:48:19;;;;;;;0.33;0.33;;;;;;;9.77;85.17;97251.69;5054787;28;20094;-71
2023/11/05 00:50:48;;;;;;;0.40;0.40;;;;;;;9.76;85.49;97250.06;5069574;28;20056;-68
2023/11/05 00:53:17;;;;;;;0.70;0.70;;;;;;;9.77;85.15;97241.50;5054402;28;20482;-67
2023/11/05 00:55:46;;;;;;;0.88;0.88;;;;;;;9.78;84.76;97239.78;5054598;28;20045;-68
2023/11/05 00:58:17;;;;;;;0.57;0.57;;;;;;;9.77;85.11;97243.22;5070074;28;20098;-67
2023/11/05 01:00:46;;;;;;;0.32;0.32;;;;;;;9.77;85.35;97253.41;5053115;28;20049;-70
2023/11/05 01:03:15;;;;;;;0.32;0.32;;;;;;;9.76;84.94;97262.78;5053024;28;20041;-72
2023/11/05 01:05:44;;;;;;;0.50;0.50;;;;;;;9.73;85.33;97246.78;5054213;28;20048;-72
2023/11/05 01:08:13;;;;;;;0.70;0.70;;;;;;;9.72;85.28;97260.38;5069871;28;20094;-67
2023/11/05 01:10:42;;;;;;;0.20;0.20;;;;;;;9.71;85.09;97248.56;5054201;28;20041;-69
2023/11/05 01:13:11;;;;;;;1.47;0.63;;;;;;;9.72;85.43;97255.28;5053982;28;20049;-67
2023/11/05 01:15:41;;;;;;;0.60;0.60;;;;;;;9.69;85.53;97250.31;5053946;28;20363;-69
2023/11/05 01:18:10;;;;;;;2.17;1.75;;;;;;;9.75;85.05;97252.63;5069751;28;20053;-67
2023/11/05 01:20:39;;;;;;;0.25;0.25;;;;;;;9.77;85.24;97259.34;5069405;28;20037;-67
2023/11/05 01:23:08;;;;;;;0.30;0.30;;;;;;;9.76;85.26;97260.25;5053163;28;20064;-67
2023/11/05 01:25:38;;;;;;;0.45;0.45;;;;;;;9.76;85.13;97261.94;5036645;28;20049;-69
2023/11/05 01:28:07;;;;;;;0.50;0.50;;;;;;;9.77;85.75;97259.34;5069433;28;20040;-72
2023/11/05 01:30:36;;;;;;;0.60;0.60;;;;;;;9.76;85.04;97262.78;5052840;28;20147;-71
2023/11/05 01:33:06;;;;;;;0.60;0.60;;;;;;;9.78;85.19;97249.97;5053728;28;20377;-70
2023/11/05 01:35:35;;;;;;;0.30;0.30;;;;;;;9.76;85.37;97244.13;5053940;28;20052;-69
2023/11/05 01:38:04;;;;;;;0.80;0.80;;;;;;;9.83;84.85;97253.19;5052466;28;20469;-71
2023/11/05 01:40:33;;;;;;;0.60;0.60;;;;;;;9.86;84.63;97242.91;5053927;28;20075;-70
2023/11/05 01:43:02;;;;;;;0.80;0.80;;;;;;;9.86;84.00;97236.06;5053553;28;20340;-68
2023/11/05 01:45:31;;;;;;;0.93;0.82;;;;;;;9.85;84.37;97231.03;5053563;28;20051;-72
2023/11/05 01:47:59;;;;;;;0.60;0.60;;;;;;;9.86;84.10;97237.81;5053788;28;20075;-70
2023/11/05 01:50:30;;;;;;;0.57;0.57;;;;;;;9.83;84.43;97227.72;5053033;28;20080;-68
2023/11/05 01:53:00;;;;;;;0.40;0.40;;;;;;;9.86;83.92;97232.72;5053544;28;20049;-69
2023/11/05 01:55:29;;;;;;;0.82;0.82;;;;;;;9.84;83.72;97226.81;5054328;28;20056;-72
2023/11/05 01:57:58;;;;;;;0.63;0.63;;;;;;;9.84;83.45;97224.28;5052797;28;20037;-69
2023/11/05 02:00:28;;;;;;;0.32;0.32;;;;;;;9.85;83.67;97213.22;5052542;28;20114;-71
2023/11/05 02:02:57;;;;;;;0.50;0.50;;;;;;;9.88;83.96;97215.66;5053329;28;20215;-67
2023/11/05 02:05:26;;;;;;;0.30;0.30;;;;;;;9.89;84.20;97202.00;5068879;28;20073;-71
2023/11/05 02:07:56;;;;;;;0.50;0.50;;;;;;;9.87;84.11;97191.88;5052382;28;20558;-66
2023/11/05 02:10:25;;;;;;;0.40;0.40;;;;;;;9.89;84.19;97184.19;5053694;28;20049;-67
2023/11/05 02:12:58;;;;;;;0.30;0.30;;;;;;;9.88;84.99;97191.00;5052145;28;20045;-67
2023/11/05 02:15:28;;;;;;;4.00;0.73;;;;;;;9.88;85.17;97185.09;5053328;28;20045;-67
2023/11/05 02:17:57;;;;;;;0.40;0.40;;;;;;;9.78;85.68;97173.56;5053564;28;20064;-68
2023/11/05 02:20:27;;;;;;;0.85;0.85;;;;;;;9.86;86.00;97181.78;5053906;28;20041;-69
2023/11/05 02:23:02;;;;;;;0.93;0.73;;;;;;;9.84;85.76;97179.25;5053462;28;20064;-69
2023/11/05 02:25:32;;;;;;;0.30;0.30;;;;;;;9.86;86.45;97179.22;5053517;28;20103;-67
2023/11/05 02:28:02;;;;;;;0.82;0.82;;;;;;;9.87;87.27;97168.13;5053025;28;20056;-68
2023/11/05 02:30:31;;;;;;;1.17;1.02;;;;;;;9.87;87.00;97157.94;5068575;28;20079;-69
2023/11/05 02:33:00;;;;;;;2.50;1.33;;;;;;;9.88;87.11;97155.34;5051913;28;20390;-69
2023/11/05 02:35:29;;;;;;;1.08;0.88;;;;;;;9.88;87.12;97150.25;5051880;28;20274;-67
2023/11/05 02:37:58;;;;;;;0.28;0.28;;;;;;;9.86;87.57;97151.19;5053059;28;20041;-68
2023/11/05 02:40:27;;;;;;;0.80;0.80;;;;;;;9.85;87.66;97154.63;5053278;28;20037;-68
2023/11/05 02:42:58;;;;;;;0.40;0.40;;;;;;;9.87;87.87;97171.50;5068535;28;20049;-67
2023/11/05 02:45:27;;;;;;;0.30;0.30;;;;;;;9.88;87.56;97167.25;5069072;28;20086;-66
2023/11/05 02:47:55;;;;;;;0.30;0.30;;;;;;;9.92;87.89;97176.44;5053011;28;20048;-66
2023/11/05 02:50:34;;;;;;;0.52;0.52;;;;;;;9.88;87.43;97164.69;5052730;28;20049;-66
2023/11/05 02:53:03;;;;;;;1.05;0.95;;;;;;;9.88;87.94;97149.41;5052956;28;20037;-68
2023/11/05 02:55:31;;;;;;;0.50;0.50;;;;;;;9.89;87.75;97138.31;5052919;28;20064;-68
2023/11/05 02:58:02;;;;;;;0.55;0.55;;;;;;;9.89;87.59;97136.63;5053464;28;20099;-66
2023/11/05 03:00:33;;;;;;;0.43;0.43;;;;;;;9.87;87.55;97123.13;5068669;28;20379;-67
2023/11/05 03:03:05;;;;;;;1.30;1.20;;;;;;;9.85;87.48;97119.81;5054973;28;20128;-69
2023/11/05 03:05:34;;;;;;;0.98;0.88;;;;;;;9.90;87.40;97123.00;5056463;28;20048;-67
2023/11/05 03:08:04;;;;;;;0.50;0.50;;;;;;;9.93;88.04;97127.16;5056379;28;20045;-66
2023/11/05 03:10:32;;;;;;;0.80;0.80;;;;;;;9.95;87.18;97126.19;5057188;28;20065;-67
2023/11/05 03:13:03;;;;;;;0.60;0.60;;;;;;;10.00;87.59;97121.75;5071853;28;20044;-68
2023/11/05 03:15:33;;;;;;;1.10;0.93;;;;;;;10.02;87.81;97136.97;5056313;28;20076;-68
2023/11/05 03:18:02;;;;;;;0.38;0.38;;;;;;;9.96;87.54;97114.25;5056503;28;20135;-69
2023/11/05 03:20:31;;;;;;;0.80;0.75;;;;;;;10.01;87.29;97130.19;5056139;28;20501;-67
2023/11/05 03:23:00;;;;;;;0.40;0.40;;;;;;;9.99;87.64;97111.59;5056048;28;20045;-68
2023/11/05 03:25:29;;;;;;;0.30;0.30;;;;;;;9.96;87.56;97107.47;5056870;28;20433;-68
2023/11/05 03:27:58;;;;;;;2.97;1.43;;;;;;;9.95;87.87;97105.81;5056052;28;20767;-68
2023/11/05 03:30:28;;;;;;;0.40;0.40;;;;;;;9.93;87.67;97106.78;5056065;28;20063;-68
2023/11/05 03:32:57;;;;;;;0.50;0.50;;;;;;;9.94;87.94;97098.22;5055905;28;20161;-66
2023/11/05 03:35:26;;;;;;;0.43;0.43;;;;;;;9.94;88.32;97093.97;5055885;28;20055;-67
2023/11/05 03:37:55;;;;;;;0.70;0.65;;;;;;;9.96;88.01;97091.34;5055852;28;20115;-67
2023/11/05 03:40:24;;;;;;;0.40;0.40;;;;;;;9.94;88.06;97098.22;5071639;28;20048;-69
2023/11/05 03:42:53;;;;;;;0.55;0.55;;;;;;;9.96;88.34;97096.44;5071499;28;20048;-66
2023/11/05 03:45:22;;;;;;;0.30;0.30;;;;;;;9.95;88.27;97098.19;5055039;28;20493;-67
2023/11/05 03:47:52;;;;;;;0.40;0.40;;;;;;;9.95;88.39;97084.59;5055649;28;20071;-67
2023/11/05 03:50:21;;;;;;;0.68;0.68;;;;;;;9.93;88.89;97081.28;5055468;28;20052;-67
2023/11/05 03:52:51;;;;;;;0.40;0.40;;;;;;;9.96;88.78;97081.97;5055468;28;20045;-67
2023/11/05 03:55:20;;;;;;;0.35;0.35;;;;;;;10.04;88.92;97084.22;5055822;28;20129;-69
2023/11/05 03:57:49;;;;;;;0.30;0.30;;;;;;;10.02;88.87;97078.38;5071064;28;20410;-66
2023/11/05 04:00:18;;;;;;;1.17;0.57;;;;;;;10.03;89.03;97067.28;5055758;28;20041;-66
2023/11/05 04:02:47;;;;;;;0.30;0.30;;;;;;;10.08;89.22;97060.28;5055946;28;20041;-69
2023/11/05 04:05:18;;;;;;;0.40;0.40;;;;;;;10.13;89.22;97058.41;5055473;28;20053;-68
2023/11/05 04:07:47;;;;;;;0.70;0.70;;;;;;;10.15;89.21;97064.25;5055614;28;20045;-68
2023/11/05 04:10:16;;;;;;;0.30;0.30;;;;;;;10.16;89.37;97057.44;5055257;28;20032;-68
2023/11/05 04:12:45;;;;;;;0.60;0.60;;;;;;;10.15;89.50;97056.63;5054987;28;20041;-67
2023/11/05 04:15:14;;;;;;;0.47;0.47;;;;;;;10.00;89.62;97031.75;5055107;28;20033;-66
2023/11/05 04:17:43;;;;;;;0.68;0.68;;;;;;;10.14;90.03;97047.31;5055082;28;20041;-66
2023/11/05 04:20:12;;;;;;;0.30;0.30;;;;;;;9.99;89.87;97025.00;5055377;28;20044;-67
2023/11/05 04:22:45;;;;;;;0.35;0.35;;;;;;;10.13;90.46;97042.28;5055266;28;20402;-65
2023/11/05 04:25:15;;;;;;;0.30;0.30;;;;;;;10.13;90.41;97038.00;5055413;28;20466;-67
2023/11/05 04:27:44;;;;;;;0.45;0.45;;;;;;;10.10;90.74;97028.75;5055508;28;20494;-65
2023/11/05 04:30:13;;;;;;;0.40;0.40;;;;;;;9.90;91.13;96997.34;5055183;28;20049;-66
2023/11/05 04:32:43;;;;;;;0.63;0.63;;;;;;;10.04;90.51;97025.63;5054696;28;20040;-66
2023/11/05 04:35:11;;;;;;;;;;;;;;;10.02;91.30;97019.78;5055433;28;20103;-67
2023/11/05 04:37:42;;;;;;;0.40;0.40;;;;;;;10.01;91.32;97013.84;5054690;28;19924;-65
2023/11/05 04:40:12;;;;;;;0.65;0.65;;;;;;;10.06;91.84;97004.28;5054669;28;20053;-64
2023/11/05 04:42:42;;;;;;;0.57;0.57;;;;;;;10.07;91.97;97002.56;5054668;28;20569;-65
2023/11/05 04:45:11;;;;;;;0.40;0.40;;;;;;;10.08;92.17;96999.13;5054456;28;20048;-65
2023/11/05 04:47:40;;;;;;;0.35;0.35;;;;;;;10.12;92.33;96990.50;5054476;28;20561;-65
2023/11/05 04:50:11;;;;;;;0.50;0.43;;;;;;;10.14;92.57;96988.72;5054497;28;20041;-65
2023/11/05 04:52:39;;;;;;;0.50;0.50;;;;;;;10.10;92.67;96982.06;5054748;28;20285;-64
2023/11/05 04:55:10;;;;;;;0.30;0.30;;;;;;;10.06;92.43;96980.53;5054345;28;20080;-65
2023/11/05 04:57:39;;;;;;;0.60;0.60;;;;;;;10.05;92.82;96981.44;5054393;28;20055;-65
2023/11/05 05:00:09;;;;;;;0.67;0.67;;;;;;;10.01;92.94;96967.97;5054302;28;20049;-65
2023/11/05 05:02:38;;;;;;;0.20;0.20;;;;;;;9.99;93.15;96963.84;5054310;28;20155;-63
2023/11/05 05:05:08;;;;;;;0.70;0.70;;;;;;;10.01;92.99;96954.41;5054430;28;20071;-64
2023/11/05 05:07:38;;;;;;;1.90;1.80;;;;;;;10.04;93.32;96962.78;5054463;28;20059;-67
2023/11/05 05:10:09;;;;;;;0.20;0.20;;;;;;;10.03;92.88;96956.00;5054183;28;20070;-66
2023/11/05 05:12:39;;;;;;;0.80;0.80;;;;;;;10.07;93.32;96956.72;5054079;28;20090;-66
2023/11/05 05:15:09;;;;;;;0.30;0.30;;;;;;;10.03;93.48;96956.00;5054723;28;20041;-65
2023/11/05 05:17:38;;;;;;;0.30;0.30;;;;;;;10.07;93.33;96964.34;5054236;28;20056;-63
2023/11/05 05:20:10;;;;;;;0.40;0.40;;;;;;;10.05;93.40;96955.97;5054278;28;20124;-64
2023/11/05 05:22:38;;;;;;;0.30;0.30;;;;;;;10.03;93.27;96956.00;5053903;28;20056;-66
2023/11/05 05:25:10;;;;;;;2.08;0.55;;;;;;;10.05;93.71;96953.41;5053301;28;20049;-64
2023/11/05 05:27:39;;;;;;;0.52;0.35;;;;;;;10.05;93.32;96948.31;5053801;28;20056;-65
2023/11/05 05:30:09;;;;;;;0.30;0.30;;;;;;;10.09;93.71;96949.84;5054428;28;20395;-65
2023/11/05 05:32:38;;;;;;;0.38;0.38;;;;;;;10.12;93.89;96959.94;5053786;28;20045;-66
2023/11/05 05:35:07;;;;;;;0.40;0.40;;;;;;;10.13;93.91;96960.72;5053717;28;20044;-67
2023/11/05 05:37:36;;;;;;;0.35;0.35;;;;;;;10.13;93.54;96956.47;5053922;28;20372;-63
2023/11/05 05:40:06;;;;;;;0.50;0.50;;;;;;;10.09;93.93;96960.03;5053975;28;20043;-64
2023/11/05 05:42:37;;;;;;;0.68;0.50;;;;;;;10.14;94.10;96963.25;5053653;28;20278;-65
2023/11/05 05:45:07;;;;;;;0.20;0.20;;;;;;;10.14;94.19;96955.59;5053622;28;20048;-64
2023/11/05 05:47:36;;;;;;;;;;;;;;;10.14;94.01;96945.41;5053890;28;20497;-65
2023/11/05 05:50:06;;;;;;;0.35;0.35;;;;;;;10.12;94.04;96942.09;5053637;28;20015;-65
2023/11/05 05:52:35;;;;;;;0.25;0.25;;;;;;;10.13;94.35;96935.25;5053754;28;20059;-66
2023/11/05 05:55:08;;;;;;;0.38;0.38;;;;;;;10.09;94.22;96932.81;5053379;28;20041;-64
2023/11/05 05:57:39;;;;;;;0.30;0.30;;;;;;;10.09;94.82;96926.91;5053517;28;20132;-66
2023/11/05 06:00:11;;;;;;;0.73;0.73;;;;;;;10.10;94.79;96931.13;5053461;28;20087;-67
2023/11/05 06:02:40;;;;;;;0.30;0.30;;;;;;;10.12;94.97;96916.63;5053471;28;20049;-67
2023/11/05 06:05:09;;;;;;;0.30;0.30;;;;;;;10.14;94.34;96912.28;5053964;28;20562;-68
2023/11/05 06:07:38;;;;;;;0.30;0.30;;;;;;;10.14;94.49;96902.09;5053319;28;20278;-65
2023/11/05 06:10:09;;;;;;;0.30;0.30;;;;;;;10.16;94.57;96905.38;5053559;28;20049;-68
2023/11/05 06:12:40;;;;;;;0.30;0.30;;;;;;;10.18;94.94;96908.69;5053264;28;20107;-66
2023/11/05 06:15:10;;;;;;;0.30;0.30;;;;;;;10.18;94.78;96911.25;5053256;28;20041;-66
2023/11/05 06:17:41;;;;;;;0.40;0.40;;;;;;;10.20;94.54;96922.19;5053291;28;20049;-65
2023/11/05 06:20:10;;;;;;;;;;;;;;;10.24;95.04;96923.72;5053673;28;20044;-67
2023/11/05 06:22:39;;;;;;;0.40;0.40;;;;;;;10.24;94.80;96933.91;5053189;28;19921;-64
2023/11/05 06:25:09;;;;;;;;;;;;;;;10.22;94.98;96934.88;5054749;28;20471;-67
2023/11/05 06:27:41;;;;;;;0.22;0.22;;;;;;;10.21;95.13;96944.25;5053128;28;20381;-64
2023/11/05 06:30:11;;;;;;;0.50;0.50;;;;;;;10.21;95.15;96934.03;5053388;28;20383;-66
2023/11/05 06:32:40;;;;;;;0.63;0.63;;;;;;;10.19;95.02;96925.66;5053133;28;20060;-66
2023/11/05 06:35:09;;;;;;;0.20;0.20;;;;;;;10.21;94.67;96918.75;5053014;28;20544;-65
2023/11/05 06:37:38;;;;;;;0.30;0.30;;;;;;;10.21;94.72;96913.66;5055823;28;20080;-66
2023/11/05 06:40:08;;;;;;;0.20;0.20;;;;;;;10.19;95.01;96907.81;5072399;28;20041;-65
2023/11/05 06:42:39;;;;;;;0.32;0.32;;;;;;;10.15;94.88;96903.72;5057195;28;20052;-64
2023/11/05 06:45:10;;;;;;;0.20;0.20;;;;;;;10.15;95.00;96903.72;5056747;28;20049;-67
2023/11/05 06:47:38;;;;;;;0.40;0.40;;;;;;;10.15;94.94;96898.63;5056768;28;20045;-66
2023/11/05 06:50:08;;;;;;;0.25;0.25;;;;;;;10.17;94.68;96901.13;5056565;28;20048;-66
2023/11/05 06:52:37;;;;;;;;;;;;;;;10.18;94.59;96905.31;5057634;28;20067;-66
2023/11/05 06:55:09;;;;;;;0.32;0.32;;;;;;;10.15;94.06;96895.28;5056626;28;19951;-66
2023/11/05 06:57:38;;;;;;;0.73;0.50;;;;;;;10.16;94.48;96910.47;5056762;28;20045;-65
2023/11/05 07:00:10;;;;;;;0.40;0.40;;;;;;;10.16;93.64;96910.47;5056678;28;20091;-66
2023/11/05 07:02:39;;;;;;;0.30;0.30;;;;;;;10.16;93.67;96909.66;5056460;28;20048;-66
2023/11/05 07:05:09;;;;;;;0.40;0.40;;;;;;;10.17;93.68;96907.06;5056834;28;20045;-68
2023/11/05 07:07:38;;;;;;;0.50;0.50;;;;;;;10.18;93.64;96908.69;5056758;28;20132;-65
2023/11/05 07:10:09;;;;;;;0.22;0.22;;;;;;;10.18;93.35;96903.59;5056296;28;20041;-65
2023/11/05 07:12:41;;;;;;;0.30;0.30;;;;;;;10.20;93.29;96901.78;5056507;28;20037;-64
2023/11/05 07:15:12;;;;;;;0.77;0.77;;;;;;;10.21;93.54;96893.28;5056184;28;20069;-64
2023/11/05 07:17:41;;;;;;;0.30;0.30;;;;;;;10.24;93.38;96890.59;5056287;28;20045;-64
2023/11/05 07:20:13;;;;;;;0.30;0.30;;;;;;;10.25;92.85;96889.69;5056467;28;20047;-65
2023/11/05 07:22:44;;;;;;;0.30;0.30;;;;;;;10.24;92.80;96872.75;5056507;28;20277;-65
2023/11/05 07:25:13;;;;;;;0.30;0.30;;;;;;;10.23;93.35;96860.91;5056064;28;20056;-64
2023/11/05 07:27:42;;;;;;;0.30;0.30;;;;;;;10.21;93.44;96847.41;5056552;28;20068;-66
2023/11/05 07:30:14;;;;;;;0.20;0.20;;;;;;;10.22;93.21;96848.22;5056096;28;20051;-66
2023/11/05 07:32:44;;;;;;;0.40;0.40;;;;;;;10.23;93.24;96837.97;5055977;28;20502;-66
2023/11/05 07:35:13;;;;;;;1.15;0.73;;;;;;;10.21;93.41;96831.28;5055818;28;20044;-65
2023/11/05 07:37:43;;;;;;;0.30;0.30;;;;;;;10.23;93.26;96830.31;5056171;28;20033;-65
2023/11/05 07:40:12;;;;;;;0.65;0.60;;;;;;;10.21;93.15;96824.47;5056654;28;20045;-65
2023/11/05 07:42:42;;;;;;;0.40;0.40;;;;;;;10.17;93.15;96799.19;5056114;28;20037;-66
2023/11/05 07:45:13;;;;;;;0.35;0.35;;;;;;;10.18;93.36;96804.22;5056371;28;20413;-65
2023/11/05 07:47:42;;;;;;;0.30;0.30;;;;;;;10.19;93.82;96777.84;5055282;28;20120;-66
2023/11/05 07:50:12;;;;;;;0.40;0.40;;;;;;;10.23;93.74;96779.34;5055380;28;20049;-65
2023/11/05 07:52:43;;;;;;;0.30;0.30;;;;;;;10.25;93.31;96752.06;5056250;28;20486;-64
2023/11/05 07:55:12;;;;;;;1.60;1.10;;;;;;;10.27;93.24;96755.34;5056200;28;20481;-64
2023/11/05 07:57:43;;;;;;;0.40;0.40;;;;;;;10.27;93.71;96760.47;5055159;28;20486;-64
2023/11/05 08:00:18;;;;;;;0.30;0.30;;;;;;;10.27;93.27;96760.47;5055518;28;20555;-65
2023/11/05 08:02:47;;;;;;;0.30;0.30;;;;;;;10.31;93.71;96750.97;5055390;28;20116;-63
2023/11/05 08:05:16;;;;;;;0.25;0.25;;;;;;;10.35;93.33;96750.75;5055357;28;20041;-62
2023/11/05 08:07:45;;;;;;;0.20;0.20;;;;;;;10.39;93.26;96765.00;5055231;28;20043;-64
2023/11/05 08:10:14;;;;;;;0.30;0.30;;;;;;;10.37;93.35;96771.88;5055610;28;20045;-64
2023/11/05 08:12:43;;;;;;;2.83;1.65;;;;;;;10.37;93.03;96741.28;5055184;28;20079;-64
2023/11/05 08:15:13;;;;;;;0.30;0.30;;;;;;;10.39;93.05;96744.59;5070544;28;20048;-65
2023/11/05 08:17:42;;;;;;;0.85;0.85;;;;;;;10.44;93.03;96767.31;5055168;28;20040;-64
2023/11/05 08:20:14;;;;;;;0.30;0.30;;;;;;;10.47;92.67;96762.91;5055755;28;20482;-63
2023/11/05 08:22:44;;;;;;;0.30;0.30;;;;;;;10.53;92.14;96759.25;5055447;28;20077;-64
2023/11/05 08:25:14;;;;;;;0.47;0.47;;;;;;;10.55;92.35;96749.81;5055246;28;20072;-64
2023/11/05 08:27:43;;;;;;;0.30;0.30;;;;;;;10.49;92.13;96730.50;5054989;28;20041;-63
2023/11/05 08:30:16;;;;;;;0.30;0.30;;;;;;;10.56;91.56;96731.88;5054834;28;20048;-65
2023/11/05 08:32:45;;;;;;;0.30;0.30;;;;;;;10.61;91.60;96713.78;5055079;28;20506;-63
2023/11/05 08:35:14;;;;;;;0.85;0.85;;;;;;;10.61;91.34;96724.00;5054704;28;20037;-63
2023/11/05 08:37:43;;;;;;;0.30;0.30;;;;;;;10.60;91.15;96728.31;5066696;28;20082;-65
2023/11/05 08:40:13;;;;;;;0.20;0.20;;;;;;;10.61;91.31;96740.13;5074739;28;20122;-64
2023/11/05 08:42:43;;;;;;;0.40;0.40;;;;;;;10.60;91.11;96727.47;5074509;28;20044;-64
2023/11/05 08:45:16;;;;;;;0.75;0.75;;;;;;;10.54;91.24;96713.28;5074847;28;20397;-63
2023/11/05 08:47:45;;;;;;;0.35;0.35;;;;;;;10.45;91.17;96678.03;5074448;28;20048;-63
2023/11/05 08:50:14;;;;;;;0.30;0.30;;;;;;;10.58;91.45;96675.72;5074292;28;20098;-63
2023/11/05 08:52:42;;;;;;;0.27;0.27;;;;;;;10.58;91.19;96663.78;5074409;28;20036;-65
2023/11/05 08:55:13;;;;;;;1.00;0.82;;;;;;;10.51;91.38;96633.59;5074311;28;20045;-64
2023/11/05 08:57:42;;;;;;;0.55;0.55;;;;;;;10.61;91.44;96637.31;5073361;28;20051;-65
2023/11/05 09:00:12;;;;;;;0.85;0.85;;;;;;;10.59;91.45;96628.91;5073383;28;20048;-64
2023/11/05 09:02:43;;;;;;;0.40;0.40;;;;;;;10.62;91.80;96644.91;5074271;28;20139;-65
2023/11/05 09:05:12;;;;;;;0.30;0.30;;;;;;;10.60;91.59;96666.28;5074210;28;20056;-65
2023/11/05 09:07:42;;;;;;;0.30;0.30;;;;;;;10.61;91.60;96678.94;5074365;28;20040;-65
2023/11/05 09:10:12;;;;;;;0.23;0.23;;;;;;;10.60;91.91;96672.19;5074385;28;20083;-64
2023/11/05 09:12:41;;;;;;;0.20;0.20;;;;;;;10.59;91.87;96680.75;5074383;28;20086;-65
2023/11/05 09:15:10;;;;;;;0.35;0.35;;;;;;;10.60;92.38;96692.59;5074142;28;20513;-64
2023/11/05 09:17:39;;;;;;;0.60;0.60;;;;;;;10.63;92.06;96696.69;5074175;28;20494;-65
2023/11/05 09:20:11;;;;;;;0.32;0.32;;;;;;;10.61;92.56;96704.44;5073874;28;20098;-66
2023/11/05 09:22:40;;;;;;;0.40;0.40;;;;;;;10.61;91.90;96694.22;5074115;28;20139;-64
2023/11/05 09:25:10;;;;;;;0.50;0.50;;;;;;;10.63;92.01;96687.31;5073973;28;20047;-65
2023/11/05 09:27:40;;;;;;;0.40;0.40;;;;;;;10.63;91.86;96687.31;5073610;28;20047;-65
2023/11/05 09:30:11;;;;;;;0.20;0.20;;;;;;;10.65;91.80;96675.31;5073300;28;20070;-65
2023/11/05 09:32:42;;;;;;;0.40;0.40;;;;;;;10.65;92.22;96679.63;5071221;28;20047;-64
2023/11/05 09:35:13;;;;;;;0.30;0.30;;;;;;;10.66;92.10;96671.88;5073352;28;20043;-65
2023/11/05 09:37:44;;;;;;;0.43;0.43;;;;;;;10.66;92.28;96632.81;5070952;28;20090;-64
2023/11/05 09:40:16;;;;;;;0.38;0.38;;;;;;;10.66;91.91;96590.28;5073724;28;20044;-65
2023/11/05 09:43:00;;;;;;;0.40;0.40;;;;;;;10.69;92.41;96584.19;5073070;28;20077;-64
2023/11/05 09:45:33;;;;;;;0.40;0.40;;;;;;;10.70;92.21;96576.47;5073754;28;20045;-64
2023/11/05 09:48:04;;;;;;;0.20;0.20;;;;;;;10.77;92.42;96567.59;5073965;28;20098;-66
2023/11/05 09:50:36;;;;;;;0.25;0.25;;;;;;;10.78;92.45;96537.81;5073416;28;20048;-63
2023/11/05 09:53:06;;;;;;;0.30;0.30;;;;;;;10.78;92.43;96525.06;5073835;28;20124;-66
2023/11/05 09:55:35;;;;;;;;;;;;;;;10.83;92.64;96555.44;5073867;28;20045;-64
2023/11/05 09:58:05;;;;;;;0.40;0.40;;;;;;;10.85;92.60;96566.38;5073609;28;19963;-65
2023/11/05 10:00:35;;;;;;;0.30;0.30;;;;;;;10.82;92.44;96579.31;5073525;28;20040;-67
2023/11/05 10:03:07;;;;;;;0.30;0.30;;;;;;;10.71;92.77;96583.22;5073862;28;20498;-67
2023/11/05 10:05:39;;;;;;;0.40;0.40;;;;;;;10.83;92.37;96614.09;5073720;28;20504;-66
2023/11/05 10:08:09;;;;;;;0.40;0.40;;;;;;;10.83;92.57;96611.53;5073443;28;20102;-64
2023/11/05 10:10:39;;;;;;;0.47;0.47;;;;;;;10.80;92.68;96612.53;5074560;28;20048;-67
2023/11/05 10:13:08;;;;;;;0.40;0.40;;;;;;;10.77;92.86;96628.00;5077553;28;20049;-65
2023/11/05 10:15:38;;;;;;;0.30;0.30;;;;;;;10.74;92.75;96659.59;5077359;28;20056;-67
2023/11/05 10:18:07;;;;;;;0.40;0.40;;;;;;;10.77;93.13;96679.81;5077787;28;20115;-66
2023/11/05 10:20:49;;;;;;;0.50;0.50;;;;;;;10.70;92.87;96673.38;5077695;28;20048;-67
2023/11/05 10:23:18;;;;;;;0.30;0.30;;;;;;;10.61;93.10;96684.03;5077254;28;20045;-66
2023/11/05 10:25:50;;;;;;;0.40;0.40;;;;;;;10.60;93.59;96692.59;5077284;28;20055;-67
2023/11/05 10:28:20;;;;;;;0.55;0.55;;;;;;;10.62;93.21;96695.91;5077293;28;20284;-67
2023/11/05 10:30:51;;;;;;;0.38;0.38;;;;;;;10.63;93.68;96697.53;5077148;28;20130;-66
2023/11/05 10:33:23;;;;;;;0.20;0.20;;;;;;;10.67;93.58;96704.16;5075884;28;20494;-65
2023/11/05 10:35:55;;;;;;;0.57;0.57;;;;;;;10.64;93.70;96694.09;5077180;28;20098;-66
2023/11/05 10:38:27;;;;;;;0.40;0.40;;;;;;;10.64;94.04;96678.78;5076010;28;20052;-64
2023/11/05 10:40:59;;;;;;;0.32;0.32;;;;;;;10.65;93.74;96644.72;5076870;28;20046;-63
2023/11/05 10:43:29;;;;;;;0.40;0.40;;;;;;;10.70;93.98;96632.56;5076527;28;20048;-65
2023/11/05 10:45:59;;;;;;;0.50;0.50;;;;;;;10.75;93.76;96630.63;5077126;28;20048;-67
2023/11/05 10:48:28;;;;;;;0.30;0.30;;;;;;;10.33;93.87;96546.09;5074593;28;20045;-66
2023/11/05 10:51:01;;;;;;;0.40;0.40;;;;;;;10.80;93.64;96606.63;5052142;28;20524;-64
2023/11/05 10:53:34;;;;;;;0.40;0.40;;;;;;;10.83;93.94;96631.94;5096025;28;20154;-64
2023/11/05 10:56:30;;;;;;;0.47;0.47;;;;;;;10.86;93.78;96634.34;5097413;28;20052;-65
2023/11/05 10:59:02;;;;;;;0.40;0.40;;;;;;;10.89;93.92;96642.69;5086967;28;20041;-65
2023/11/05 11:01:32;;;;;;;0.40;0.40;;;;;;;10.92;93.79;96646.81;5056306;28;20041;-65
2023/11/05 11:04:09;;;;;;;0.45;0.45;;;;;;;10.94;93.72;96645.81;5056431;28;20135;-66
2023/11/05 11:06:41;;;;;;;0.68;0.68;;;;;;;11.00;94.07;96644.69;5056494;28;20045;-65
2023/11/05 11:09:22;;;;;;;0.70;0.70;;;;;;;11.05;93.61;96647.81;5056375;28;20055;-66
2023/11/05 11:11:52;;;;;;;0.47;0.47;;;;;;;11.11;93.78;96667.94;5056351;28;20072;-66
2023/11/05 11:14:23;;;;;;;0.47;0.47;;;;;;;11.10;94.06;96666.28;5056126;28;20049;-66
2023/11/05 11:16:52;;;;;;;0.45;0.45;;;;;;;11.16;93.94;96694.03;5056444;28;20040;-66
2023/11/05 11:19:22;;;;;;;0.52;0.50;;;;;;;11.16;94.04;96711.88;5056229;28;20043;-67
2023/11/05 11:22:03;;;;;;;0.40;0.40;;;;;;;11.13;93.98;96735.84;5055246;28;20049;-65
2023/11/05 11:24:37;;;;;;;0.60;0.60;;;;;;;11.09;94.16;96751.38;5056112;28;20048;-66
2023/11/05 11:27:09;;;;;;;1.08;1.02;;;;;;;11.04;94.31;96751.59;5056067;28;20494;-66
2023/11/05 11:29:41;;;;;;;0.60;0.60;;;;;;;11.04;94.32;96745.69;5055976;28;20053;-67
2023/11/05 11:32:11;;;;;;;1.35;1.25;;;;;;;11.00;94.39;96739.09;5056250;28;20139;-67
2023/11/05 11:34:45;;;;;;;0.50;0.50;;;;;;;11.03;94.39;96744.88;5056239;28;20041;-66
2023/11/05 11:37:17;;;;;;;0.52;0.52;;;;;;;11.03;94.76;96737.22;5056011;28;20499;-66
2023/11/05 11:39:49;;;;;;;1.13;0.80;;;;;;;11.03;94.70;96732.13;5054862;28;20059;-67
2023/11/05 11:42:19;;;;;;;0.47;0.47;;;;;;;11.06;94.82;96726.84;5055900;28;20049;-67
2023/11/05 11:44:48;;;;;;;0.60;0.60;;;;;;;11.12;94.84;96746.13;5055672;28;20057;-66
2023/11/05 11:47:18;;;;;;;0.60;0.60;;;;;;;11.17;95.09;96765.44;5056068;28;20033;-67
2023/11/05 11:49:46;;;;;;;0.33;0.33;;;;;;;11.23;95.04;96779.59;5055634;28;20122;-67